sensor_id;sensor_type;location;lat;lon;timestamp;pressure;altitude;pressure_sealevel;temperature;humidity
55456;BME280;63021;52.836;6.376;2023-04-21T00:00:54;101776.75;;;8.90;72.05
55456;BME280;63021;52.836;6.376;2023-04-21T00:03:21;101790.78;;;9.03;72.24
55456;BME280;63021;52.836;6.376;2023-04-21T00:05:50;101771.91;;;8.95;72.42
55456;BME280;63021;52.836;6.376;2023-04-21T00:08:17;101770.13;;;8.95;72.28
55456;BME280;63021;52.836;6.376;2023-04-21T00:10:45;101757.41;;;8.88;72.61
55456;BME280;63021;52.836;6.376;2023-04-21T00:13:11;101767.13;;;9.00;72.63
55456;BME280;63021;52.836;6.376;2023-04-21T00:15:42;101776.09;;;9.10;72.70
55456;BME280;63021;52.836;6.376;2023-04-21T00:18:10;101766.84;;;8.92;72.18
55456;BME280;63021;52.836;6.376;2023-04-21T00:20:37;101741.16;;;8.92;72.71
55456;BME280;63021;52.836;6.376;2023-04-21T00:23:03;101766.53;;;9.08;72.83
55456;BME280;63021;52.836;6.376;2023-04-21T00:25:29;101740.03;;;8.95;72.48
55456;BME280;63021;52.836;6.376;2023-04-21T00:27:54;101731.66;;;9.01;72.88
55456;BME280;63021;52.836;6.376;2023-04-21T00:30:20;101713.25;;;8.87;72.78
55456;BME280;63021;52.836;6.376;2023-04-21T00:32:46;101745.28;;;9.08;72.77
55456;BME280;63021;52.836;6.376;2023-04-21T00:35:15;101719.78;;;8.94;71.91
55456;BME280;63021;52.836;6.376;2023-04-21T00:37:46;101717.13;;;8.94;72.11
55456;BME280;63021;52.836;6.376;2023-04-21T00:40:25;101734.66;;;9.08;72.34
55456;BME280;63021;52.836;6.376;2023-04-21T00:42:51;101720.66;;;9.06;72.37
55456;BME280;63021;52.836;6.376;2023-04-21T00:45:17;101716.25;;;8.93;71.94
55456;BME280;63021;52.836;6.376;2023-04-21T00:47:48;101705.19;;;8.99;72.08
55456;BME280;63021;52.836;6.376;2023-04-21T00:50:14;101694.31;;;8.91;72.02
55456;BME280;63021;52.836;6.376;2023-04-21T00:52:50;101717.19;;;9.05;72.32
55456;BME280;63021;52.836;6.376;2023-04-21T00:55:16;101697.78;;;8.92;72.32
55456;BME280;63021;52.836;6.376;2023-04-21T00:57:45;101716.44;;;9.03;72.06
55456;BME280;63021;52.836;6.376;2023-04-21T01:00:11;101682.56;;;8.82;71.53
55456;BME280;63021;52.836;6.376;2023-04-21T01:02:40;101711.34;;;9.00;71.84
55456;BME280;63021;52.836;6.376;2023-04-21T01:05:10;101685.94;;;8.84;71.70
55456;BME280;63021;52.836;6.376;2023-04-21T01:07:36;101673.38;;;8.75;71.28
55456;BME280;63021;52.836;6.376;2023-04-21T01:10:05;101680.47;;;8.75;71.91
55456;BME280;63021;52.836;6.376;2023-04-21T01:12:46;101690.66;;;8.81;71.79
55456;BME280;63021;52.836;6.376;2023-04-21T01:15:16;101685.34;;;8.81;71.92
55456;BME280;63021;52.836;6.376;2023-04-21T01:17:45;101712.78;;;8.93;71.81
55456;BME280;63021;52.836;6.376;2023-04-21T01:20:14;101690.41;;;8.84;71.83
55456;BME280;63021;52.836;6.376;2023-04-21T01:22:43;101687.88;;;8.82;71.51
55456;BME280;63021;52.836;6.376;2023-04-21T01:25:14;101701.50;;;8.89;71.40
55456;BME280;63021;52.836;6.376;2023-04-21T01:28:08;101667.31;;;8.73;71.69
55456;BME280;63021;52.836;6.376;2023-04-21T01:30:46;101682.03;;;8.77;71.68
55456;BME280;63021;52.836;6.376;2023-04-21T01:33:26;101689.56;;;8.83;71.23
55456;BME280;63021;52.836;6.376;2023-04-21T01:35:57;101685.56;;;8.78;71.55
55456;BME280;63021;52.836;6.376;2023-04-21T01:38:32;101663.03;;;8.59;71.44
55456;BME280;63021;52.836;6.376;2023-04-21T01:41:00;101683.00;;;8.76;71.54
55456;BME280;63021;52.836;6.376;2023-04-21T01:43:26;101683.75;;;8.78;71.86
55456;BME280;63021;52.836;6.376;2023-04-21T01:45:52;101649.88;;;8.58;72.10
55456;BME280;63021;52.836;6.376;2023-04-21T01:48:20;101643.84;;;8.56;71.55
55456;BME280;63021;52.836;6.376;2023-04-21T01:50:49;101662.97;;;8.72;72.05
55456;BME280;63021;52.836;6.376;2023-04-21T01:53:20;101637.56;;;8.57;72.13
55456;BME280;63021;52.836;6.376;2023-04-21T01:55:46;101650.66;;;8.71;71.29
55456;BME280;63021;52.836;6.376;2023-04-21T01:58:16;101627.06;;;8.55;71.99
55456;BME280;63021;52.836;6.376;2023-04-21T02:00:46;101649.81;;;8.71;71.71
55456;BME280;63021;52.836;6.376;2023-04-21T02:03:14;101633.84;;;8.59;71.99
55456;BME280;63021;52.836;6.376;2023-04-21T02:05:40;101672.00;;;8.70;72.11
55456;BME280;63021;52.836;6.376;2023-04-21T02:08:05;101644.84;;;8.66;71.48
55456;BME280;63021;52.836;6.376;2023-04-21T02:10:34;101637.00;;;8.64;71.86
55456;BME280;63021;52.836;6.376;2023-04-21T02:12:59;101637.47;;;8.58;71.39
55456;BME280;63021;52.836;6.376;2023-04-21T02:15:25;101650.16;;;8.66;71.79
55456;BME280;63021;52.836;6.376;2023-04-21T02:17:50;101651.84;;;8.67;72.16
55456;BME280;63021;52.836;6.376;2023-04-21T02:20:16;101652.69;;;8.67;71.75
55456;BME280;63021;52.836;6.376;2023-04-21T02:22:41;101649.91;;;8.69;71.96
55456;BME280;63021;52.836;6.376;2023-04-21T02:25:07;101657.78;;;8.71;72.00
55456;BME280;63021;52.836;6.376;2023-04-21T02:27:33;101654.78;;;8.75;71.51
55456;BME280;63021;52.836;6.376;2023-04-21T02:29:58;101624.66;;;8.52;71.96
55456;BME280;63021;52.836;6.376;2023-04-21T02:32:24;101621.38;;;8.48;71.27
55456;BME280;63021;52.836;6.376;2023-04-21T02:34:53;101658.00;;;8.67;71.60
55456;BME280;63021;52.836;6.376;2023-04-21T02:37:19;101613.41;;;8.48;71.55
55456;BME280;63021;52.836;6.376;2023-04-21T02:39:45;101654.38;;;8.69;71.37
55456;BME280;63021;52.836;6.376;2023-04-21T02:42:15;101638.75;;;8.53;71.72
55456;BME280;63021;52.836;6.376;2023-04-21T02:44:41;101628.97;;;8.53;72.11
55456;BME280;63021;52.836;6.376;2023-04-21T02:47:10;101649.19;;;8.67;72.01
55456;BME280;63021;52.836;6.376;2023-04-21T02:49:43;101652.69;;;8.67;71.51
55456;BME280;63021;52.836;6.376;2023-04-21T02:52:11;101620.75;;;8.45;71.63
55456;BME280;63021;52.836;6.376;2023-04-21T02:54:40;101619.03;;;8.44;71.46
55456;BME280;63021;52.836;6.376;2023-04-21T02:57:05;101605.25;;;8.39;72.06
55456;BME280;63021;52.836;6.376;2023-04-21T02:59:37;101618.28;;;8.42;71.81
55456;BME280;63021;52.836;6.376;2023-04-21T03:02:05;101651.44;;;8.60;72.33
55456;BME280;63021;52.836;6.376;2023-04-21T03:04:31;101627.31;;;8.52;72.08
55456;BME280;63021;52.836;6.376;2023-04-21T03:07:00;101606.22;;;8.38;71.47
55456;BME280;63021;52.836;6.376;2023-04-21T03:09:29;101641.94;;;8.58;71.70
55456;BME280;63021;52.836;6.376;2023-04-21T03:12:00;101611.72;;;8.35;71.72
55456;BME280;63021;52.836;6.376;2023-04-21T03:14:25;101649.78;;;8.59;71.63
55456;BME280;63021;52.836;6.376;2023-04-21T03:16:51;101612.59;;;8.35;72.06
55456;BME280;63021;52.836;6.376;2023-04-21T03:19:19;101616.97;;;8.36;71.70
55456;BME280;63021;52.836;6.376;2023-04-21T03:21:45;101657.84;;;8.58;71.58
55456;BME280;63021;52.836;6.376;2023-04-21T03:24:11;101653.63;;;8.55;72.24
55456;BME280;63021;52.836;6.376;2023-04-21T03:26:38;101644.41;;;8.48;72.17
55456;BME280;63021;52.836;6.376;2023-04-21T03:29:06;101638.66;;;8.41;71.96
55456;BME280;63021;52.836;6.376;2023-04-21T03:31:35;101654.03;;;8.49;71.92
55456;BME280;63021;52.836;6.376;2023-04-21T03:34:00;101619.81;;;8.33;72.00
55456;BME280;63021;52.836;6.376;2023-04-21T03:36:26;101648.97;;;8.46;72.23
55456;BME280;63021;52.836;6.376;2023-04-21T03:38:52;101634.88;;;8.32;71.96
55456;BME280;63021;52.836;6.376;2023-04-21T03:41:17;101651.53;;;8.35;71.63
55456;BME280;63021;52.836;6.376;2023-04-21T03:43:50;101652.78;;;8.42;71.73
55456;BME280;63021;52.836;6.376;2023-04-21T03:46:19;101668.28;;;8.48;72.17
55456;BME280;63021;52.836;6.376;2023-04-21T03:48:47;101649.28;;;8.41;72.16
55456;BME280;63021;52.836;6.376;2023-04-21T03:51:13;101674.97;;;8.54;71.84
55456;BME280;63021;52.836;6.376;2023-04-21T03:53:39;101655.88;;;8.48;71.72
55456;BME280;63021;52.836;6.376;2023-04-21T03:56:05;101701.09;;;8.71;71.76
55456;BME280;63021;52.836;6.376;2023-04-21T03:58:34;101685.88;;;8.73;71.83
55456;BME280;63021;52.836;6.376;2023-04-21T04:01:03;101653.72;;;8.54;72.19
55456;BME280;63021;52.836;6.376;2023-04-21T04:04:00;101697.75;;;8.80;71.88
55456;BME280;63021;52.836;6.376;2023-04-21T04:06:25;101683.22;;;8.73;72.24
55456;BME280;63021;52.836;6.376;2023-04-21T04:09:03;101677.31;;;8.70;72.20
55456;BME280;63021;52.836;6.376;2023-04-21T04:11:30;101671.50;;;8.64;72.10
55456;BME280;63021;52.836;6.376;2023-04-21T04:14:04;101670.94;;;8.72;71.62
55456;BME280;63021;52.836;6.376;2023-04-21T04:16:37;101706.47;;;8.82;71.79
55456;BME280;63021;52.836;6.376;2023-04-21T04:19:03;101684.25;;;8.83;71.83
55456;BME280;63021;52.836;6.376;2023-04-21T04:21:29;101680.63;;;8.84;71.41
55456;BME280;63021;52.836;6.376;2023-04-21T04:23:55;101656.91;;;8.70;71.62
55456;BME280;63021;52.836;6.376;2023-04-21T04:26:21;101660.31;;;8.72;71.39
55456;BME280;63021;52.836;6.376;2023-04-21T04:28:53;101696.31;;;8.88;71.50
55456;BME280;63021;52.836;6.376;2023-04-21T04:31:28;101678.84;;;8.85;71.73
55456;BME280;63021;52.836;6.376;2023-04-21T04:33:55;101661.44;;;8.81;71.34
55456;BME280;63021;52.836;6.376;2023-04-21T04:36:21;101687.28;;;8.90;71.21
55456;BME280;63021;52.836;6.376;2023-04-21T04:38:57;101648.25;;;8.68;70.91
55456;BME280;63021;52.836;6.376;2023-04-21T04:41:23;101677.69;;;8.76;71.37
55456;BME280;63021;52.836;6.376;2023-04-21T04:43:49;101694.31;;;8.91;71.14
55456;BME280;63021;52.836;6.376;2023-04-21T04:46:46;101686.06;;;8.83;71.36
55456;BME280;63021;52.836;6.376;2023-04-21T04:49:41;101694.66;;;8.87;71.10
55456;BME280;63021;52.836;6.376;2023-04-21T04:52:10;101695.09;;;8.80;70.97
55456;BME280;63021;52.836;6.376;2023-04-21T04:54:45;101699.22;;;8.84;70.99
55456;BME280;63021;52.836;6.376;2023-04-21T04:57:13;101674.38;;;8.61;70.79
55456;BME280;63021;52.836;6.376;2023-04-21T04:59:44;101686.63;;;8.75;70.91
55456;BME280;63021;52.836;6.376;2023-04-21T05:02:10;101676.91;;;8.63;71.44
55456;BME280;63021;52.836;6.376;2023-04-21T05:04:57;101705.94;;;8.77;71.30
55456;BME280;63021;52.836;6.376;2023-04-21T05:08:07;101692.38;;;8.69;71.34
55456;BME280;63021;52.836;6.376;2023-04-21T05:11:08;101696.63;;;8.72;71.20
55456;BME280;63021;52.836;6.376;2023-04-21T05:13:52;101716.31;;;8.80;70.88
55456;BME280;63021;52.836;6.376;2023-04-21T05:16:17;101687.31;;;8.66;71.23
55456;BME280;63021;52.836;6.376;2023-04-21T05:19:12;101720.69;;;8.81;71.27
55456;BME280;63021;52.836;6.376;2023-04-21T05:21:49;101715.25;;;8.83;71.14
55456;BME280;63021;52.836;6.376;2023-04-21T05:24:22;101719.63;;;8.84;71.10
55456;BME280;63021;52.836;6.376;2023-04-21T05:26:51;101705.50;;;8.83;71.15
55456;BME280;63021;52.836;6.376;2023-04-21T05:29:56;101713.84;;;8.90;71.24
55456;BME280;63021;52.836;6.376;2023-04-21T05:32:53;101708.28;;;8.93;71.55
55456;BME280;63021;52.836;6.376;2023-04-21T05:38:39;101679.16;;;8.80;70.61
55456;BME280;63021;52.836;6.376;2023-04-21T05:41:12;101712.47;;;9.09;70.50
55456;BME280;63021;52.836;6.376;2023-04-21T05:46:38;101715.41;;;9.17;70.52
55456;BME280;63021;52.836;6.376;2023-04-21T05:52:22;101704.56;;;9.31;70.87
55456;BME280;63021;52.836;6.376;2023-04-21T05:54:50;101718.22;;;9.38;70.44
55456;BME280;63021;52.836;6.376;2023-04-21T05:57:41;101703.97;;;9.50;70.71
55456;BME280;63021;52.836;6.376;2023-04-21T06:00:16;101691.53;;;9.51;69.99
55456;BME280;63021;52.836;6.376;2023-04-21T06:02:47;101686.13;;;9.52;70.30
55456;BME280;63021;52.836;6.376;2023-04-21T06:05:13;101683.94;;;9.58;70.32
55456;BME280;63021;52.836;6.376;2023-04-21T06:08:09;101664.72;;;9.54;70.25
55456;BME280;63021;52.836;6.376;2023-04-21T06:10:59;101698.69;;;9.84;69.88
55456;BME280;63021;52.836;6.376;2023-04-21T06:13:39;101696.03;;;9.84;69.76
55456;BME280;63021;52.836;6.376;2023-04-21T06:16:25;101674.63;;;9.86;70.02
55456;BME280;63021;52.836;6.376;2023-04-21T06:19:09;101700.59;;;10.05;69.66
55456;BME280;63021;52.836;6.376;2023-04-21T06:22:03;101658.31;;;9.91;69.32
55456;BME280;63021;52.836;6.376;2023-04-21T06:24:39;101661.44;;;9.96;69.83
55456;BME280;63021;52.836;6.376;2023-04-21T06:27:09;101671.56;;;10.13;69.53
55456;BME280;63021;52.836;6.376;2023-04-21T06:29:41;101657.31;;;10.14;69.42
55456;BME280;63021;52.836;6.376;2023-04-21T06:32:31;101690.66;;;10.41;69.61
55456;BME280;63021;52.836;6.376;2023-04-21T06:35:04;101684.72;;;10.49;69.04
55456;BME280;63021;52.836;6.376;2023-04-21T06:37:33;101655.72;;;10.34;68.82
55456;BME280;63021;52.836;6.376;2023-04-21T06:40:27;101676.09;;;10.56;68.61
55456;BME280;63021;52.836;6.376;2023-04-21T06:43:05;101654.19;;;10.53;68.85
55456;BME280;63021;52.836;6.376;2023-04-21T06:45:39;101677.09;;;10.77;68.60
55456;BME280;63021;52.836;6.376;2023-04-21T06:48:14;101675.63;;;10.84;68.70
55456;BME280;63021;52.836;6.376;2023-04-21T06:50:43;101681.59;;;10.97;68.81
55456;BME280;63021;52.836;6.376;2023-04-21T06:53:12;101667.66;;;11.05;68.07
55456;BME280;63021;52.836;6.376;2023-04-21T06:55:54;101672.06;;;11.16;68.48
55456;BME280;63021;52.836;6.376;2023-04-21T06:58:28;101673.41;;;11.31;67.95
55456;BME280;63021;52.836;6.376;2023-04-21T07:01:06;101671.03;;;11.28;67.71
55456;BME280;63021;52.836;6.376;2023-04-21T07:03:34;101681.97;;;11.35;67.46
55456;BME280;63021;52.836;6.376;2023-04-21T07:06:03;101657.28;;;11.33;66.87
55456;BME280;63021;52.836;6.376;2023-04-21T07:11:19;101678.41;;;11.46;67.26
55456;BME280;63021;52.836;6.376;2023-04-21T07:13:54;101688.94;;;11.47;66.84
55456;BME280;63021;52.836;6.376;2023-04-21T07:19:34;101682.19;;;11.43;66.84
55456;BME280;63021;52.836;6.376;2023-04-21T07:24:54;101683.13;;;11.42;66.70
55456;BME280;63021;52.836;6.376;2023-04-21T07:27:26;101671.72;;;11.30;66.57
55456;BME280;63021;52.836;6.376;2023-04-21T07:29:52;101674.38;;;11.30;66.50
55456;BME280;63021;52.836;6.376;2023-04-21T07:32:26;101653.59;;;11.24;66.62
55456;BME280;63021;52.836;6.376;2023-04-21T07:34:52;101688.25;;;11.45;66.85
55456;BME280;63021;52.836;6.376;2023-04-21T07:37:21;101680.94;;;11.47;66.95
55456;BME280;63021;52.836;6.376;2023-04-21T07:39:54;101654.88;;;11.30;66.67
55456;BME280;63021;52.836;6.376;2023-04-21T07:42:22;101671.25;;;11.46;66.91
55456;BME280;63021;52.836;6.376;2023-04-21T07:44:57;101647.31;;;11.35;66.54
55456;BME280;63021;52.836;6.376;2023-04-21T07:47:28;101646.09;;;11.39;66.62
55456;BME280;63021;52.836;6.376;2023-04-21T07:50:01;101678.19;;;11.58;66.47
55456;BME280;63021;52.836;6.376;2023-04-21T07:52:30;101677.97;;;11.71;66.69
55456;BME280;63021;52.836;6.376;2023-04-21T07:54:59;101663.75;;;11.71;66.54
55456;BME280;63021;52.836;6.376;2023-04-21T07:57:28;101672.69;;;11.81;66.41
55456;BME280;63021;52.836;6.376;2023-04-21T08:00:06;101647.38;;;11.75;66.36
55456;BME280;63021;52.836;6.376;2023-04-21T08:02:32;101671.91;;;12.00;66.27
55456;BME280;63021;52.836;6.376;2023-04-21T08:05:01;101636.47;;;11.88;65.85
55456;BME280;63021;52.836;6.376;2023-04-21T08:07:27;101652.53;;;12.08;66.03
55456;BME280;63021;52.836;6.376;2023-04-21T08:10:07;101632.44;;;12.04;65.81
55456;BME280;63021;52.836;6.376;2023-04-21T08:12:51;101620.53;;;12.08;65.79
55456;BME280;63021;52.836;6.376;2023-04-21T08:15:17;101637.56;;;12.26;65.91
55456;BME280;63021;52.836;6.376;2023-04-21T08:17:45;101651.75;;;12.46;65.78
55456;BME280;63021;52.836;6.376;2023-04-21T08:20:32;101657.69;;;12.50;65.08
55456;BME280;63021;52.836;6.376;2023-04-21T08:22:57;101651.09;;;12.54;65.10
55456;BME280;63021;52.836;6.376;2023-04-21T08:28:28;101615.09;;;12.48;65.25
55456;BME280;63021;52.836;6.376;2023-04-21T08:31:13;101629.44;;;12.67;65.01
55456;BME280;63021;52.836;6.376;2023-04-21T08:33:55;101604.13;;;12.61;65.03
55456;BME280;63021;52.836;6.376;2023-04-21T08:36:29;101655.69;;;12.91;64.69
55456;BME280;63021;52.836;6.376;2023-04-21T08:41:49;101641.19;;;13.04;64.38
55456;BME280;63021;52.836;6.376;2023-04-21T08:44:15;101634.13;;;13.12;64.19
55456;BME280;63021;52.836;6.376;2023-04-21T08:47:09;101599.97;;;13.06;64.53
55456;BME280;63021;52.836;6.376;2023-04-21T08:49:36;101633.38;;;13.30;64.36
55456;BME280;63021;52.836;6.376;2023-04-21T08:52:11;101611.44;;;13.26;64.53
55456;BME280;63021;52.836;6.376;2023-04-21T08:54:39;101608.91;;;13.34;64.28
55456;BME280;63021;52.836;6.376;2023-04-21T08:57:19;101632.59;;;13.57;63.60
55456;BME280;63021;52.836;6.376;2023-04-21T08:59:50;101602.50;;;13.55;63.79
55456;BME280;63021;52.836;6.376;2023-04-21T09:02:19;101597.69;;;13.59;63.40
55456;BME280;63021;52.836;6.376;2023-04-21T09:04:49;101610.81;;;13.80;63.41
55456;BME280;63021;52.836;6.376;2023-04-21T09:07:52;101613.41;;;13.99;63.60
55456;BME280;63021;52.836;6.376;2023-04-21T09:10:23;101582.72;;;13.94;63.40
55456;BME280;63021;52.836;6.376;2023-04-21T09:13:00;101572.63;;;14.06;63.13
55456;BME280;63021;52.836;6.376;2023-04-21T09:18:31;101595.59;;;14.44;62.19
55456;BME280;63021;52.836;6.376;2023-04-21T09:21:07;101573.44;;;14.42;62.01
55456;BME280;63021;52.836;6.376;2023-04-21T09:23:55;101586.25;;;14.66;61.66
55456;BME280;63021;52.836;6.376;2023-04-21T09:26:26;101610.66;;;14.81;61.22
55456;BME280;63021;52.836;6.376;2023-04-21T09:29:05;101590.38;;;14.79;60.63
55456;BME280;63021;52.836;6.376;2023-04-21T09:31:34;101600.84;;;14.90;60.45
55456;BME280;63021;52.836;6.376;2023-04-21T09:34:00;101580.75;;;14.94;59.96
55456;BME280;63021;52.836;6.376;2023-04-21T09:36:39;101610.59;;;15.25;59.67
55456;BME280;63021;52.836;6.376;2023-04-21T09:39:05;101608.94;;;15.24;59.00
55456;BME280;63021;52.836;6.376;2023-04-21T09:41:34;101599.25;;;15.32;58.97
55456;BME280;63021;52.836;6.376;2023-04-21T09:44:05;101595.53;;;15.33;58.69
55456;BME280;63021;52.836;6.376;2023-04-21T09:46:36;101574.78;;;15.35;58.70
55456;BME280;63021;52.836;6.376;2023-04-21T09:49:02;101609.97;;;15.66;58.27
55456;BME280;63021;52.836;6.376;2023-04-21T09:52:19;101607.28;;;15.74;57.73
55456;BME280;63021;52.836;6.376;2023-04-21T09:55:11;101575.41;;;15.63;57.76
55456;BME280;63021;52.836;6.376;2023-04-21T09:57:42;101591.56;;;15.80;57.13
55456;BME280;63021;52.836;6.376;2023-04-21T10:00:17;101574.06;;;15.75;57.00
55456;BME280;63021;52.836;6.376;2023-04-21T10:02:50;101570.09;;;15.80;57.12
55456;BME280;63021;52.836;6.376;2023-04-21T10:05:22;101585.44;;;16.04;57.39
55456;BME280;63021;52.836;6.376;2023-04-21T10:07:51;101587.78;;;16.07;57.29
55456;BME280;63021;52.836;6.376;2023-04-21T10:10:31;101584.13;;;16.24;56.33
55456;BME280;63021;52.836;6.376;2023-04-21T10:13:02;101578.91;;;16.23;56.76
55456;BME280;63021;52.836;6.376;2023-04-21T10:15:38;101573.38;;;16.49;56.98
55456;BME280;63021;52.836;6.376;2023-04-21T10:18:28;101552.53;;;16.68;56.57
55456;BME280;63021;52.836;6.376;2023-04-21T10:23:44;101540.22;;;16.98;54.78
55456;BME280;63021;52.836;6.376;2023-04-21T10:26:27;101565.22;;;17.15;54.20
55456;BME280;63021;52.836;6.376;2023-04-21T10:29:03;101528.47;;;16.99;54.29
55456;BME280;63021;52.836;6.376;2023-04-21T10:31:49;101516.03;;;16.98;54.15
55456;BME280;63021;52.836;6.376;2023-04-21T10:34:19;101555.34;;;17.16;53.83
55456;BME280;63021;52.836;6.376;2023-04-21T10:39:32;101548.25;;;17.14;54.05
55456;BME280;63021;52.836;6.376;2023-04-21T10:44:51;101512.69;;;16.88;53.20
55456;BME280;63021;52.836;6.376;2023-04-21T10:47:29;101542.72;;;17.08;53.14
55456;BME280;63021;52.836;6.376;2023-04-21T10:50:10;101528.78;;;17.12;53.30
55456;BME280;63021;52.836;6.376;2023-04-21T10:52:35;101518.03;;;17.12;53.61
55456;BME280;63021;52.836;6.376;2023-04-21T10:57:33;101512.72;;;17.27;52.63
55456;BME280;63021;52.836;6.376;2023-04-21T10:59:59;101518.78;;;17.29;52.90
55456;BME280;63021;52.836;6.376;2023-04-21T11:02:25;101490.38;;;17.27;53.31
55456;BME280;63021;52.836;6.376;2023-04-21T11:04:54;101523.91;;;17.47;52.45
55456;BME280;63021;52.836;6.376;2023-04-21T11:07:34;101501.88;;;17.44;52.79
55456;BME280;63021;52.836;6.376;2023-04-21T11:10:07;101510.59;;;17.54;52.31
55456;BME280;63021;52.836;6.376;2023-04-21T11:12:36;101507.03;;;17.54;51.61
55456;BME280;63021;52.836;6.376;2023-04-21T11:15:05;101499.31;;;17.51;51.38
55456;BME280;63021;52.836;6.376;2023-04-21T11:17:44;101494.78;;;17.51;51.72
55456;BME280;63021;52.836;6.376;2023-04-21T11:20:11;101476.09;;;17.49;51.47
55456;BME280;63021;52.836;6.376;2023-04-21T11:22:36;101468.88;;;17.50;51.04
55456;BME280;63021;52.836;6.376;2023-04-21T11:25:15;101449.97;;;17.58;51.51
55456;BME280;63021;52.836;6.376;2023-04-21T11:27:55;101457.03;;;17.91;52.03
55456;BME280;63021;52.836;6.376;2023-04-21T11:30:30;101466.94;;;18.13;51.21
55456;BME280;63021;52.836;6.376;2023-04-21T11:33:00;101453.75;;;18.18;51.01
55456;BME280;63021;52.836;6.376;2023-04-21T11:35:30;101452.84;;;18.26;50.26
55456;BME280;63021;52.836;6.376;2023-04-21T11:37:56;101437.31;;;18.28;50.36
55456;BME280;63021;52.836;6.376;2023-04-21T11:40:25;101425.53;;;18.29;50.69
55456;BME280;63021;52.836;6.376;2023-04-21T11:42:56;101442.25;;;18.55;50.26
55456;BME280;63021;52.836;6.376;2023-04-21T11:45:22;101436.53;;;18.58;49.89
55456;BME280;63021;52.836;6.376;2023-04-21T11:47:50;101418.56;;;18.50;49.61
55456;BME280;63021;52.836;6.376;2023-04-21T11:50:30;101405.66;;;18.45;49.85
55456;BME280;63021;52.836;6.376;2023-04-21T11:53:01;101405.66;;;18.45;49.58
55456;BME280;63021;52.836;6.376;2023-04-21T11:55:36;101408.03;;;18.40;48.67
55456;BME280;63021;52.836;6.376;2023-04-21T11:58:10;101397.19;;;18.33;49.01
55456;BME280;63021;52.836;6.376;2023-04-21T12:00:49;101426.66;;;18.50;49.35
55456;BME280;63021;52.836;6.376;2023-04-21T12:03:18;101394.75;;;18.39;48.91
55456;BME280;63021;52.836;6.376;2023-04-21T12:05:55;101390.09;;;18.47;48.84
55456;BME280;63021;52.836;6.376;2023-04-21T12:08:20;101388.34;;;18.55;48.63
55456;BME280;63021;52.836;6.376;2023-04-21T12:10:49;101399.97;;;18.55;48.56
55456;BME280;63021;52.836;6.376;2023-04-21T12:13:22;101419.59;;;18.64;47.97
55456;BME280;63021;52.836;6.376;2023-04-21T12:15:51;101390.78;;;18.49;48.22
55456;BME280;63021;52.836;6.376;2023-04-21T12:18:40;101398.09;;;18.56;48.38
55456;BME280;63021;52.836;6.376;2023-04-21T12:21:06;101390.88;;;18.56;48.21
55456;BME280;63021;52.836;6.376;2023-04-21T12:23:37;101414.31;;;18.70;47.50
55456;BME280;63021;52.836;6.376;2023-04-21T12:26:10;101390.03;;;18.56;47.36
55456;BME280;63021;52.836;6.376;2023-04-21T12:28:39;101403.78;;;18.61;47.62
55456;BME280;63021;52.836;6.376;2023-04-21T12:31:05;101407.88;;;18.57;47.63
55456;BME280;63021;52.836;6.376;2023-04-21T12:33:32;101379.69;;;18.44;47.95
55456;BME280;63021;52.836;6.376;2023-04-21T12:35:57;101396.91;;;18.58;48.34
55456;BME280;63021;52.836;6.376;2023-04-21T12:38:26;101383.31;;;18.51;47.63
55456;BME280;63021;52.836;6.376;2023-04-21T12:41:03;101367.16;;;18.37;47.88
55456;BME280;63021;52.836;6.376;2023-04-21T12:43:37;101364.09;;;18.40;47.94
55456;BME280;63021;52.836;6.376;2023-04-21T12:46:03;101393.38;;;18.58;48.03
55456;BME280;63021;52.836;6.376;2023-04-21T12:48:39;101391.03;;;18.55;47.70
55456;BME280;63021;52.836;6.376;2023-04-21T12:51:05;101365.66;;;18.34;47.39
55456;BME280;63021;52.836;6.376;2023-04-21T12:53:31;101390.88;;;18.56;47.55
55456;BME280;63021;52.836;6.376;2023-04-21T12:56:21;101369.03;;;18.51;47.39
55456;BME280;63021;52.836;6.376;2023-04-21T12:58:58;101372.84;;;18.57;47.56
55456;BME280;63021;52.836;6.376;2023-04-21T13:01:29;101377.38;;;18.71;47.25
55456;BME280;63021;52.836;6.376;2023-04-21T13:03:55;101364.84;;;18.63;47.23
55456;BME280;63021;52.836;6.376;2023-04-21T13:06:21;101363.69;;;18.73;47.34
55456;BME280;63021;52.836;6.376;2023-04-21T13:08:50;101346.50;;;18.59;47.07
55456;BME280;63021;52.836;6.376;2023-04-21T13:11:15;101357.28;;;18.74;47.07
55456;BME280;63021;52.836;6.376;2023-04-21T13:13:57;101331.44;;;18.64;47.29
55456;BME280;63021;52.836;6.376;2023-04-21T13:16:23;101353.25;;;18.84;47.13
55456;BME280;63021;52.836;6.376;2023-04-21T13:18:52;101333.75;;;18.82;47.04
55456;BME280;63021;52.836;6.376;2023-04-21T13:21:17;101328.63;;;18.87;46.64
55456;BME280;63021;52.836;6.376;2023-04-21T13:23:43;101311.41;;;18.89;46.20
55456;BME280;63021;52.836;6.376;2023-04-21T13:26:11;101301.66;;;18.87;46.01
55456;BME280;63021;52.836;6.376;2023-04-21T13:28:41;101291.22;;;18.84;45.53
55456;BME280;63021;52.836;6.376;2023-04-21T13:31:14;101333.13;;;19.02;45.26
55456;BME280;63021;52.836;6.376;2023-04-21T13:33:46;101310.41;;;18.90;45.76
55456;BME280;63021;52.836;6.376;2023-04-21T13:36:15;101314.47;;;18.85;45.76
55456;BME280;63021;52.836;6.376;2023-04-21T13:38:41;101317.47;;;18.91;45.66
55456;BME280;63021;52.836;6.376;2023-04-21T13:41:06;101315.78;;;18.90;45.96
55456;BME280;63021;52.836;6.376;2023-04-21T13:43:38;101304.66;;;18.78;45.74
55456;BME280;63021;52.836;6.376;2023-04-21T13:46:13;101270.78;;;18.75;45.45
55456;BME280;63021;52.836;6.376;2023-04-21T13:48:39;101276.25;;;18.82;44.84
55456;BME280;63021;52.836;6.376;2023-04-21T13:51:06;101269.81;;;18.83;45.14
55456;BME280;63021;52.836;6.376;2023-04-21T13:53:32;101271.31;;;18.85;43.70
55456;BME280;63021;52.836;6.376;2023-04-21T13:56:01;101243.34;;;18.72;43.92
55456;BME280;63021;52.836;6.376;2023-04-21T13:58:30;101261.66;;;18.91;44.19